Valley Mills, TX

11:39 AM CDT on April 26, 2015 (GMT -0500)
DD Stables | | Change Station
CLOSE
Current Station
Personal Weather Station
Location: Valley Mills, TX
Elevation: 732 ft
Nearby Weather Stations

Elev 732 ft 31.70 °N, 97.49 °W | Updated 55 seconds ago

Mostly Cloudy
Mostly Cloudy
78.1 °F
Feels Like 80 °F
N
9.4
Wind Variable Wind from South

Today
High -- | Low -- °F
--% Chance of Precip.
Yesterday
High -- | Low -- °F
Precip. -- in
6:49 AM 8:06 PM
First Quarter, 57% visible
Pressure 29.74 in
Visibility 7.0 miles
Clouds Overcast 900 ft
Heat Index 80 °F
Dew Point 71 °F
Humidity 78%
Rainfall 0.00 in
Snow Depth Not available.
UV 3 out of 12
Pollen 8.70 out of 12
Air Quality Not available.
Flu Activity Local Activity
SPECI KACT 261609Z 17012KT 7SM OVC009 24/21 A2974 RMK AO2 CIG 007V014 T02440211

More Conditions Fewer Conditions

Pressure 29.74 in
Visibility 7.0 miles
Clouds Overcast 900 ft
Heat Index 80 °F
Dew Point 71 °F
Humidity 78%
Rainfall 0.00 in
Snow Depth Not available.
UV 3 out of 12
Pollen 8.70 out of 12
Air Quality Not available.
Flu Activity Local Activity
SPECI KACT 261609Z 17012KT 7SM OVC009 24/21 A2974 RMK AO2 CIG 007V014 T02440211

More Conditions Fewer Conditions

The full scope of the disaster following a powerful 7.8-magnitude earthquake in Nepal may not come into view for days, but global charities are already sending emergency aid. Click to see how you can help.
Nowcast | as of 10:39 am CDT on April 26, 2015

Scattered showers and isolated storms are developing southwest of a Graham to Hearne line. This activity will increase in coverage and intensity this afternoon. Severe thunderstorms capable of producing large hail...damaging winds...flash flooding...and isolated tornadoes will be possible this afternoon...primarily along and west of the Interstate 35 corridor. Elsewhere...skies will remain mostly clear with temperatures climbing into the low 80s over the next few hours.

×

10-Day Weather Forecast

Almanac

Astronomy

Apr. 26, 2015 Rise Set
Actual Time
Civil Twilight
Nautical Twilight
Astronomical Twilight
Moon
Length of Visible Light
Length of Day
Tomorrow will be .
, % of the Moon is Illuminated

Today's Extremes

State Highs State Lows

Community

WunderPhotos

Upload Photos

1,817,049 photos uploaded!

WunderBlogs® & News

Nearby

Air Quality

  Air Quality AQ Index Pollutant
Not available.

Snow Depth

Station Depth Elevation

Earthquake Activity

City Distance Mag. Time & Date
Minimum magnitude displayed is 2.5.

Coastal Water Temperatures

Place Temperature

Stations

Nearby Weather Stations

Station Location Temp. Windchill Dew Point Humidity Wind Precip. Elev Updated Type